Time;durP1;ratioP1;P1;durP2;ratioP2;P2;SDS_P1;SDS_P2;PMS_P1;PMS_P2;Temp;Humidity;BMP_temperature;BMP_pressure;BME280_temperature;BME280_humidity;BME280_pressure;Samples;Min_cycle;Max_cycle;Signal;HPM_P1;HPM_P2
2022/06/03 00:00:21;;;;;;;15.53;7.67;;;;;;;7.27;100.00;100779.28;7397025;19;20395;-59
2022/06/03 00:03:23;;;;;;;16.10;7.43;;;;;;;7.24;100.00;100774.84;7389954;19;20431;-59
2022/06/03 00:06:06;;;;;;;12.13;7.07;;;;;;;7.16;100.00;100779.59;7396647;19;20413;-57
2022/06/03 00:08:49;;;;;;;13.23;7.47;;;;;;;7.14;100.00;100772.59;7396263;19;20429;-58
2022/06/03 00:11:30;;;;;;;14.00;7.33;;;;;;;7.06;100.00;100782.41;7390941;19;20451;-55
2022/06/03 00:14:15;;;;;;;12.67;7.13;;;;;;;6.98;100.00;100783.69;7394415;19;20412;-55
2022/06/03 00:16:52;;;;;;;13.13;7.30;;;;;;;7.00;100.00;100784.63;7390884;19;20403;-59
2022/06/03 00:19:47;;;;;;;15.93;8.17;;;;;;;6.96;100.00;100785.25;7396512;19;20795;-56
2022/06/03 00:22:30;;;;;;;14.20;7.80;;;;;;;6.99;100.00;100791.44;7388739;19;20425;-57
2022/06/03 00:25:10;;;;;;;15.77;8.13;;;;;;;6.99;100.00;100795.69;7396131;19;20392;-51
2022/06/03 00:27:56;;;;;;;19.47;7.37;;;;;;;6.93;100.00;100795.34;7389827;19;20507;-57
2022/06/03 00:30:34;;;;;;;13.10;8.10;;;;;;;6.98;100.00;100793.94;7399296;19;20461;-57
2022/06/03 00:33:38;;;;;;;12.37;8.13;;;;;;;6.58;100.00;100793.41;7388784;19;20420;-56
2022/06/03 00:36:22;;;;;;;10.47;7.00;;;;;;;6.44;100.00;100791.69;7388661;19;20399;-59
2022/06/03 00:39:03;;;;;;;13.27;8.20;;;;;;;6.45;100.00;100796.03;7393968;19;20395;-55
2022/06/03 00:41:45;;;;;;;15.33;8.30;;;;;;;6.48;100.00;100794.53;7388971;19;20425;-57
2022/06/03 00:44:34;;;;;;;14.30;8.27;;;;;;;6.55;100.00;100793.22;7393561;19;20422;-55
2022/06/03 00:47:14;;;;;;;16.57;9.20;;;;;;;6.73;100.00;100787.41;7389136;19;20795;-54
2022/06/03 00:49:59;;;;;;;20.93;11.83;;;;;;;6.83;100.00;100774.28;7395264;19;20389;-59
2022/06/03 00:53:02;;;;;;;23.20;11.80;;;;;;;6.88;100.00;100770.31;7387533;19;20419;-57
2022/06/03 00:55:53;;;;;;;14.77;10.33;;;;;;;6.94;100.00;100758.63;7395343;19;20386;-52
2022/06/03 00:58:38;;;;;;;14.40;9.83;;;;;;;6.97;100.00;100761.38;7388013;19;20433;-55
2022/06/03 01:01:14;;;;;;;14.40;8.83;;;;;;;6.93;100.00;100759.44;7388899;19;20381;-57
2022/06/03 01:03:56;;;;;;;19.60;9.97;;;;;;;6.90;100.00;100760.16;7392834;19;20398;-54
2022/06/03 01:06:31;;;;;;;19.70;9.53;;;;;;;6.82;100.00;100762.25;7388432;19;20417;-52
2022/06/03 01:09:13;;;;;;;11.90;8.20;;;;;;;6.70;100.00;100762.47;7394620;19;20401;-58
2022/06/03 01:12:00;;;;;;;15.67;9.33;;;;;;;6.71;100.00;100761.66;7391124;19;20494;-55
2022/06/03 01:14:38;;;;;;;18.10;8.80;;;;;;;6.69;100.00;100752.09;7392883;19;20418;-56
2022/06/03 01:17:15;;;;;;;15.40;9.13;;;;;;;6.64;100.00;100762.09;7381764;19;20424;-59
2022/06/03 01:20:06;;;;;;;14.00;8.43;;;;;;;6.64;100.00;100764.66;7394747;19;20738;-60
2022/06/03 01:23:05;;;;;;;21.77;8.93;;;;;;;6.71;100.00;100771.91;7388449;19;20418;-54
2022/06/03 01:26:02;;;;;;;14.17;9.60;;;;;;;6.70;100.00;100771.81;7394059;19;20976;-59
2022/06/03 01:28:55;;;;;;;18.87;10.03;;;;;;;6.68;100.00;100773.41;7391608;19;20418;-58
2022/06/03 01:31:53;;;;;;;16.60;9.80;;;;;;;6.82;100.00;100777.66;7387850;19;20418;-58
2022/06/03 01:34:32;;;;;;;28.33;15.43;;;;;;;7.55;100.00;100779.09;7392732;19;20955;-57
2022/06/03 01:37:12;;;;;;;47.50;26.00;;;;;;;7.68;100.00;100780.66;7387585;19;20429;-58
2022/06/03 01:39:58;;;;;;;78.43;43.83;;;;;;;8.05;100.00;100778.31;7394109;19;20382;-59
2022/06/03 01:43:16;;;;;;;53.87;30.77;;;;;;;7.87;100.00;100784.22;7387191;19;20933;-60
2022/06/03 01:46:16;;;;;;;24.00;15.70;;;;;;;7.61;100.00;100787.94;7391757;19;20414;-55
2022/06/03 01:49:13;;;;;;;23.03;12.57;;;;;;;7.65;100.00;100788.19;7394969;19;20482;-58
2022/06/03 01:52:18;;;;;;;20.83;11.90;;;;;;;7.94;100.00;100787.97;7394546;19;20416;-57
2022/06/03 01:55:43;;;;;;;14.77;8.20;;;;;;;7.82;100.00;100790.78;7401266;19;20892;-58
2022/06/03 01:58:45;;;;;;;12.10;8.10;;;;;;;7.59;100.00;100787.84;7394418;19;20435;-57
2022/06/03 02:01:37;;;;;;;16.13;9.57;;;;;;;7.63;100.00;100794.06;7395961;19;20390;-57
2022/06/03 02:04:35;;;;;;;13.57;9.00;;;;;;;7.64;100.00;100794.13;7398849;19;20406;-56
2022/06/03 02:07:28;;;;;;;21.07;12.90;;;;;;;7.82;100.00;100796.84;7395174;19;20419;-58
2022/06/03 02:10:36;;;;;;;32.20;17.97;;;;;;;7.84;100.00;100802.94;7400521;19;20482;-56
2022/06/03 02:13:23;;;;;;;29.17;16.57;;;;;;;7.80;100.00;100805.25;7392384;19;20418;-56
2022/06/03 02:16:10;;;;;;;22.00;13.73;;;;;;;7.78;100.00;100805.16;7400327;19;20391;-60
2022/06/03 02:19:03;;;;;;;22.87;11.70;;;;;;;7.74;100.00;100810.06;7397822;19;20423;-56
2022/06/03 02:21:55;;;;;;;15.10;7.60;;;;;;;7.27;100.00;100817.78;7394237;19;20411;-60
2022/06/03 02:24:44;;;;;;;15.80;8.73;;;;;;;7.15;100.00;100820.53;7397788;19;20422;-57
2022/06/03 02:27:29;;;;;;;16.50;9.40;;;;;;;6.83;100.00;100828.16;7394197;19;20399;-56
2022/06/03 02:30:30;;;;;;;15.80;9.67;;;;;;;6.80;100.00;100832.22;7400080;19;20394;-59
2022/06/03 02:33:36;;;;;;;14.33;10.10;;;;;;;6.95;100.00;100830.56;7392683;19;20407;-57
2022/06/03 02:36:47;;;;;;;19.17;10.13;;;;;;;7.06;100.00;100832.84;7398951;19;20406;-57
2022/06/03 02:39:41;;;;;;;21.43;11.20;;;;;;;7.12;100.00;100828.94;7398243;19;20387;-55
2022/06/03 02:42:50;;;;;;;15.37;9.90;;;;;;;7.19;100.00;100819.03;7392209;19;20429;-57
2022/06/03 02:46:08;;;;;;;17.07;9.40;;;;;;;7.11;100.00;100816.94;7401966;19;20808;-58
2022/06/03 02:48:55;;;;;;;17.30;10.27;;;;;;;7.19;100.00;100819.94;7398484;19;20419;-56
2022/06/03 02:51:40;;;;;;;20.63;10.57;;;;;;;7.27;100.00;100808.41;7393657;19;20413;-54
2022/06/03 02:54:51;;;;;;;17.83;9.23;;;;;;;7.28;100.00;100809.31;7395060;19;20421;-60
2022/06/03 02:57:42;;;;;;;18.27;9.43;;;;;;;7.12;100.00;100816.13;7389547;19;20409;-56
2022/06/03 03:00:19;;;;;;;13.10;7.60;;;;;;;7.14;100.00;100801.69;7393822;19;20391;-56
2022/06/03 03:03:03;;;;;;;14.77;8.90;;;;;;;6.88;100.00;100813.03;7389507;19;20454;-54
2022/06/03 03:05:51;;;;;;;15.00;9.50;;;;;;;7.00;100.00;100818.00;7397006;19;20391;-57
2022/06/03 03:08:37;;;;;;;18.80;9.17;;;;;;;7.06;100.00;100810.63;7391008;19;20421;-56
2022/06/03 03:11:20;;;;;;;16.60;9.90;;;;;;;6.98;100.00;100810.19;7390365;19;20398;-58
2022/06/03 03:14:16;;;;;;;14.23;8.30;;;;;;;6.73;100.00;100818.16;7393812;19;20417;-51
2022/06/03 03:17:04;;;;;;;15.00;7.90;;;;;;;6.91;100.00;100814.91;7390548;19;20419;-58
2022/06/03 03:19:53;;;;;;;16.77;10.77;;;;;;;7.01;100.00;100820.66;7394799;19;20742;-54
2022/06/03 03:22:52;;;;;;;19.70;11.53;;;;;;;7.06;100.00;100827.69;7389403;19;20755;-57
2022/06/03 03:25:32;;;;;;;19.10;10.57;;;;;;;6.67;100.00;100831.50;7395191;19;20932;-56
2022/06/03 03:28:22;;;;;;;16.93;9.80;;;;;;;6.72;100.00;100827.53;7386221;19;20417;-57
2022/06/03 03:31:05;;;;;;;14.00;9.90;;;;;;;6.95;100.00;100834.78;7395458;19;20382;-55
2022/06/03 03:33:57;;;;;;;17.37;10.83;;;;;;;6.95;100.00;100834.78;7393187;19;20953;-58
2022/06/03 03:37:06;;;;;;;13.57;8.77;;;;;;;6.86;100.00;100830.00;7389058;19;20417;-51
2022/06/03 03:40:22;;;;;;;25.73;10.80;;;;;;;6.83;100.00;100829.84;7391908;19;20402;-55
2022/06/03 03:43:26;;;;;;;18.07;9.10;;;;;;;6.91;100.00;100827.72;7387000;19;20428;-56
2022/06/03 03:46:32;;;;;;;14.73;9.67;;;;;;;6.79;100.00;100828.78;7394973;19;20938;-54
2022/06/03 03:49:34;;;;;;;15.67;8.00;;;;;;;6.59;100.00;100825.94;7393876;19;20419;-57
2022/06/03 03:52:23;;;;;;;10.95;8.23;;;;;;;6.86;100.00;100836.03;7247213;19;2727409;-53
2022/06/03 03:55:29;;;;;;;11.33;6.93;;;;;;;6.80;100.00;100835.69;7396700;19;20129;-51
2022/06/03 03:58:29;;;;;;;12.23;7.90;;;;;;;6.83;100.00;100835.84;7389580;19;20413;-56
2022/06/03 04:01:46;;;;;;;12.80;7.57;;;;;;;6.78;100.00;100846.63;7396234;19;20468;-56
2022/06/03 04:04:41;;;;;;;14.90;8.27;;;;;;;6.91;100.00;100844.00;7395337;19;20939;-57
2022/06/03 04:07:41;;;;;;;13.40;8.00;;;;;;;7.22;100.00;100847.47;7390332;19;20771;-58
2022/06/03 04:10:43;;;;;;;12.17;8.50;;;;;;;7.20;100.00;100846.47;7396368;19;20420;-55
2022/06/03 04:13:33;;;;;;;19.13;9.77;;;;;;;7.36;100.00;100853.34;7388025;19;20436;-57
2022/06/03 04:16:31;;;;;;;30.40;14.07;;;;;;;7.35;100.00;100851.59;7394260;19;20909;-60
2022/06/03 04:19:28;;;;;;;18.00;11.13;;;;;;;7.22;100.00;100862.84;7395324;19;20410;-56
2022/06/03 04:22:14;;;;;;;20.93;11.80;;;;;;;7.26;100.00;100867.34;7388929;19;20424;-57
2022/06/03 04:25:18;;;;;;;33.90;13.30;;;;;;;7.32;100.00;100870.25;7394108;19;20418;-58
2022/06/03 04:28:14;;;;;;;32.03;14.97;;;;;;;7.28;100.00;100870.91;7391065;19;20493;-57
2022/06/03 04:31:22;;;;;;;20.47;13.10;;;;;;;7.34;100.00;100865.22;7396086;19;20382;-57
2022/06/03 04:34:39;;;;;;;26.80;14.70;;;;;;;7.41;100.00;100870.78;7395133;19;20808;-52
2022/06/03 04:37:42;;;;;;;24.33;14.20;;;;;;;7.58;100.00;100855.44;7387645;19;20425;-57
2022/06/03 04:40:48;;;;;;;29.40;14.93;;;;;;;7.72;100.00;100839.91;7393243;19;20407;-56
2022/06/03 04:44:06;;;;;;;23.47;14.27;;;;;;;7.76;100.00;100826.44;7387268;19;20438;-59
2022/06/03 04:47:14;;;;;;;30.27;15.03;;;;;;;7.85;100.00;100824.38;7389090;19;20407;-54
2022/06/03 04:50:22;;;;;;;22.57;13.97;;;;;;;7.83;100.00;100805.41;7392605;19;20918;-57
2022/06/03 04:53:30;;;;;;;23.17;15.53;;;;;;;7.93;100.00;100802.53;7388926;19;20477;-59
2022/06/03 04:56:47;;;;;;;28.57;15.80;;;;;;;8.01;100.00;100804.63;7394971;19;20755;-54
2022/06/03 04:59:52;;;;;;;26.53;15.17;;;;;;;8.08;100.00;100822.13;7393017;19;20434;-56
2022/06/03 05:03:04;;;;;;;26.20;15.10;;;;;;;8.29;100.00;100811.19;7386783;19;20411;-56
2022/06/03 05:06:04;;;;;;;32.27;16.00;;;;;;;8.42;100.00;100803.34;7395034;19;20384;-57
2022/06/03 05:09:04;;;;;;;38.93;22.83;;;;;;;8.67;100.00;100804.59;7393501;19;20492;-56
2022/06/03 05:12:04;;;;;;;24.23;14.30;;;;;;;8.93;100.00;100794.75;7389549;19;20411;-55
2022/06/03 05:14:51;;;;;;;32.90;16.53;;;;;;;8.93;100.00;100791.28;7393074;19;20426;-56
2022/06/03 05:17:37;;;;;;;29.97;16.53;;;;;;;8.95;100.00;100795.69;7388521;19;20429;-56
2022/06/03 05:20:21;;;;;;;25.43;15.40;;;;;;;9.00;100.00;100801.06;7393761;19;20382;-55
2022/06/03 05:23:17;;;;;;;25.00;15.13;;;;;;;9.08;100.00;100807.44;7387613;19;20443;-57
2022/06/03 05:26:16;;;;;;;22.60;15.07;;;;;;;9.17;100.00;100812.16;7394537;19;20393;-54
2022/06/03 05:29:01;;;;;;;30.93;16.67;;;;;;;9.17;100.00;100809.59;7392242;19;20814;-53
2022/06/03 05:32:03;;;;;;;19.20;13.60;;;;;;;9.21;100.00;100814.09;7386621;19;20415;-54
2022/06/03 05:34:52;;;;;;;28.40;16.67;;;;;;;9.28;100.00;100821.28;7392643;19;20437;-55
2022/06/03 05:37:46;;;;;;;27.77;14.73;;;;;;;9.37;100.00;100825.09;7387136;19;20447;-55
2022/06/03 05:40:38;;;;;;;22.60;12.90;;;;;;;9.45;100.00;100829.81;7393096;19;20388;-57
2022/06/03 05:43:21;;;;;;;20.80;12.57;;;;;;;9.53;100.00;100832.75;7384198;19;20518;-57
2022/06/03 05:46:07;;;;;;;18.90;12.73;;;;;;;9.59;100.00;100845.94;7393265;19;20379;-54
2022/06/03 05:49:11;;;;;;;18.00;11.87;;;;;;;9.68;100.00;100844.59;7393343;19;20927;-56
2022/06/03 05:52:10;;;;;;;22.50;13.43;;;;;;;9.79;100.00;100848.56;7387130;19;20415;-59
2022/06/03 05:54:50;;;;;;;21.63;13.17;;;;;;;9.84;100.00;100859.97;7390067;19;20945;-57
2022/06/03 05:57:31;;;;;;;22.13;11.73;;;;;;;9.91;100.00;100860.25;7386998;19;20423;-59
2022/06/03 06:00:23;;;;;;;25.57;12.20;;;;;;;10.07;100.00;100862.72;7392485;19;20387;-59
2022/06/03 06:02:57;;;;;;;23.07;12.20;;;;;;;10.27;100.00;100870.47;7385015;19;20982;-55
2022/06/03 06:05:37;;;;;;;17.77;12.10;;;;;;;10.37;100.00;100867.47;7390213;19;20407;-55
2022/06/03 06:08:16;;;;;;;19.13;11.33;;;;;;;10.46;100.00;100871.31;7386672;19;20532;-57
2022/06/03 06:10:54;;;;;;;17.07;11.97;;;;;;;10.42;100.00;100869.38;7395925;19;20405;-55
2022/06/03 06:13:33;;;;;;;15.90;8.30;;;;;;;10.39;100.00;100875.28;7381113;19;20441;-56
2022/06/03 06:16:07;;;;;;;30.67;16.53;;;;;;;10.50;100.00;100875.78;7392262;19;20379;-59
2022/06/03 06:18:55;;;;;;;17.63;10.17;;;;;;;10.61;100.00;100876.28;7392222;19;20417;-56
2022/06/03 06:21:37;;;;;;;37.17;22.37;;;;;;;10.66;100.00;100880.81;7384294;19;20767;-58
2022/06/03 06:24:13;;;;;;;17.67;7.53;;;;;;;10.71;100.00;100877.56;7394311;19;20436;-57
2022/06/03 06:27:10;;;;;;;22.27;14.10;;;;;;;10.88;100.00;100879.13;7388620;19;20831;-55
2022/06/03 06:30:09;;;;;;;14.63;8.00;;;;;;;10.90;100.00;100874.94;7392078;19;20388;-54
2022/06/03 06:32:58;;;;;;;17.57;7.70;;;;;;;11.06;100.00;100875.56;7384657;19;20745;-55
2022/06/03 06:36:05;;;;;;;16.40;7.67;;;;;;;11.23;100.00;100868.50;7395337;19;20400;-57
2022/06/03 06:38:46;;;;;;;12.73;7.33;;;;;;;11.24;100.00;100869.41;7398308;19;20478;-53
2022/06/03 06:41:24;;;;;;;13.23;8.80;;;;;;;11.74;100.00;100861.88;7394672;19;20460;-58
2022/06/03 06:44:06;;;;;;;12.70;7.30;;;;;;;11.66;100.00;100859.03;7396430;19;20405;-58
2022/06/03 06:46:48;;;;;;;15.57;8.10;;;;;;;11.55;100.00;100850.88;7392634;19;20404;-57
2022/06/03 06:49:28;;;;;;;13.23;7.67;;;;;;;11.66;100.00;100843.53;7403299;19;20401;-56
2022/06/03 06:52:08;;;;;;;33.80;17.13;;;;;;;11.63;100.00;100851.13;7391220;19;20414;-55
2022/06/03 06:54:47;;;;;;;11.47;6.67;;;;;;;11.72;100.00;100845.44;7399879;19;20495;-59
2022/06/03 06:57:21;;;;;;;38.33;20.33;;;;;;;11.70;100.00;100842.78;7392458;19;20761;-57
2022/06/03 06:59:57;;;;;;;13.13;7.37;;;;;;;11.86;100.00;100836.50;7398520;19;20385;-58
2022/06/03 07:02:30;;;;;;;10.80;5.67;;;;;;;11.82;100.00;100839.81;7392426;19;20426;-56
2022/06/03 07:05:03;;;;;;;28.40;15.13;;;;;;;12.10;100.00;100829.66;7398059;19;20398;-56
2022/06/03 07:07:37;;;;;;;9.10;5.80;;;;;;;12.09;100.00;100839.13;7391069;19;20417;-58
2022/06/03 07:10:11;;;;;;;32.90;18.23;;;;;;;12.20;100.00;100820.53;7398270;19;20381;-52
2022/06/03 07:12:45;;;;;;;26.17;13.80;;;;;;;12.23;100.00;100826.69;7391790;19;20422;-54
2022/06/03 07:15:42;;;;;;;16.53;9.73;;;;;;;12.31;100.00;100818.31;7402126;19;20399;-52
2022/06/03 07:21:06;;;;;;;78.03;39.33;;;;;;;12.40;100.00;100823.81;7396800;19;20385;-56
2022/06/03 07:23:39;;;;;;;8.13;4.37;;;;;;;12.44;100.00;100815.34;7395230;19;20479;-57
2022/06/03 07:26:15;;;;;;;9.80;5.90;;;;;;;12.77;100.00;100813.88;7391168;19;20390;-57
2022/06/03 07:28:47;;;;;;;61.43;29.93;;;;;;;12.76;100.00;100817.28;7397187;19;20956;-56
2022/06/03 07:31:24;;;;;;;11.67;6.17;;;;;;;12.86;100.00;100827.09;7387645;19;20760;-56
2022/06/03 07:34:01;;;;;;;11.03;5.57;;;;;;;12.96;100.00;100820.53;7399502;19;20494;-55
2022/06/03 07:36:36;;;;;;;40.97;26.30;;;;;;;13.28;100.00;100818.09;7391098;19;20422;-58
2022/06/03 07:39:30;;;;;;;18.87;10.97;;;;;;;13.54;100.00;100810.25;7395878;19;20382;-59
2022/06/03 07:42:07;;;;;;;47.20;18.97;;;;;;;13.91;100.00;100805.31;7388925;19;20393;-57
2022/06/03 07:44:46;;;;;;;9.90;4.23;;;;;;;13.39;100.00;100799.41;7394998;19;20419;-57
2022/06/03 07:47:18;;;;;;;8.30;3.03;;;;;;;13.48;100.00;100802.31;7385159;19;20467;-56
2022/06/03 07:49:56;;;;;;;6.70;3.27;;;;;;;13.80;100.00;100804.13;7395032;19;20937;-55
2022/06/03 07:52:32;;;;;;;32.33;16.20;;;;;;;13.73;100.00;100813.41;7389413;19;20418;-56
2022/06/03 07:55:09;;;;;;;15.80;6.17;;;;;;;13.54;100.00;100810.25;7395175;19;20939;-54
2022/06/03 07:57:39;;;;;;;16.43;8.73;;;;;;;13.62;100.00;100814.00;7388115;19;20413;-55
2022/06/03 08:00:15;;;;;;;5.10;3.47;;;;;;;13.72;100.00;100814.25;7394873;19;20467;-53
2022/06/03 08:02:48;;;;;;;15.80;6.30;;;;;;;13.37;100.00;100812.31;7385050;19;20497;-58
2022/06/03 08:05:20;;;;;;;5.60;3.20;;;;;;;13.45;100.00;100816.03;7394355;19;20926;-58
2022/06/03 08:13:20;;;;;;;5.73;3.23;;;;;;;13.84;100.00;100814.63;7385572;19;20428;-54
2022/06/03 08:15:54;;;;;;;3.63;2.10;;;;;;;13.91;100.00;100794.94;7393628;19;20408;-59
2022/06/03 08:18:28;;;;;;;15.90;7.07;;;;;;;13.90;100.00;100773.31;7387383;19;20420;-58
2022/06/03 08:21:01;;;;;;;4.97;2.03;;;;;;;14.15;100.00;100773.97;7394164;19;20390;-54
2022/06/03 08:23:33;;;;;;;5.13;1.90;;;;;;;14.30;100.00;100803.78;7391897;19;20949;-56
2022/06/03 08:26:05;;;;;;;6.20;2.27;;;;;;;14.51;100.00;100859.72;7398426;19;20403;-58
2022/06/03 08:28:36;;;;;;;7.93;2.47;;;;;;;14.72;100.00;100932.13;7394877;19;20760;-59
2022/06/03 08:31:07;;;;;;;7.30;3.00;;;;;;;14.86;100.00;100984.47;7389403;19;20392;-58
2022/06/03 08:33:43;;;;;;;9.40;1.77;;;;;;;15.05;100.00;101018.75;7390117;19;20424;-57
2022/06/03 08:36:16;;;;;;;51.87;27.20;;;;;;;14.63;100.00;101091.16;7392310;19;20396;-58
2022/06/03 08:38:51;;;;;;;22.27;10.43;;;;;;;14.61;100.00;101105.78;7398437;19;20480;-56
2022/06/03 08:41:35;;;;;;;10.47;4.40;;;;;;;14.99;100.00;101094.81;7388216;19;20387;-57
2022/06/03 08:44:12;;;;;;;5.50;2.27;;;;;;;15.21;100.00;101124.00;7393294;19;20415;-55
2022/06/03 08:46:53;;;;;;;18.00;8.03;;;;;;;14.94;100.00;101151.84;7389586;19;20808;-56
2022/06/03 08:49:29;;;;;;;46.83;23.53;;;;;;;14.86;100.00;101163.69;7395221;19;20909;-54
2022/06/03 08:52:02;;;;;;;26.80;11.73;;;;;;;15.09;100.00;101197.31;7390089;19;20411;-58
2022/06/03 08:54:37;;;;;;;16.80;8.60;;;;;;;15.39;100.00;101202.50;7393497;19;20781;-57
2022/06/03 08:57:11;;;;;;;15.17;7.07;;;;;;;15.58;100.00;101234.25;7388705;19;20437;-56
2022/06/03 08:59:47;;;;;;;10.83;3.80;;;;;;;15.63;100.00;101229.16;7396434;19;20459;-56
2022/06/03 09:02:24;;;;;;;5.63;2.40;;;;;;;15.46;100.00;101281.59;7386077;19;20428;-56
2022/06/03 09:05:02;;;;;;;6.30;3.03;;;;;;;15.96;100.00;101194.56;7394882;19;20393;-58
2022/06/03 09:07:41;;;;;;;10.27;3.93;;;;;;;16.04;100.00;101249.41;7388449;19;20766;-59
2022/06/03 09:10:16;;;;;;;7.07;3.63;;;;;;;16.10;100.00;101265.19;7394163;19;20453;-59
2022/06/03 09:12:54;;;;;;;6.90;3.63;;;;;;;16.30;100.00;101229.28;7387370;19;20515;-59
2022/06/03 09:15:27;;;;;;;9.63;2.70;;;;;;;16.33;100.00;101246.69;7394743;19;20446;-56
2022/06/03 09:17:59;;;;;;;61.00;20.60;;;;;;;16.09;100.00;101332.84;7388020;19;20417;-59
2022/06/03 09:20:35;;;;;;;52.70;20.40;;;;;;;15.87;100.00;101371.19;7394278;19;20382;-56
2022/06/03 09:23:08;;;;;;;48.07;17.03;;;;;;;16.06;100.00;101376.13;7382193;19;20422;-57
2022/06/03 09:25:41;;;;;;;24.63;9.27;;;;;;;16.25;100.00;101358.44;7394113;19;20393;-56
2022/06/03 09:28:15;;;;;;;6.73;3.23;;;;;;;16.18;100.00;101374.72;7388141;19;20427;-59
2022/06/03 09:30:48;;;;;;;22.73;10.20;;;;;;;15.93;100.00;101402.63;7393575;19;20451;-58
2022/06/03 09:33:20;;;;;;;10.40;3.87;;;;;;;16.17;100.00;101409.41;7385610;19;20429;-55
2022/06/03 09:35:55;;;;;;;7.33;3.40;;;;;;;16.37;100.00;101455.97;7393431;19;20751;-59
2022/06/03 09:38:27;;;;;;;15.60;10.60;;;;;;;16.56;100.00;101468.66;7389791;19;20526;-60
2022/06/03 09:41:01;;;;;;;23.97;13.50;;;;;;;16.81;100.00;101466.75;7393405;19;20392;-57
2022/06/03 09:43:35;;;;;;;5.03;2.40;;;;;;;16.96;100.00;101494.06;7389988;19;20421;-57
2022/06/03 09:46:06;;;;;;;4.83;2.40;;;;;;;17.09;100.00;101474.47;7386874;19;20402;-58
2022/06/03 09:48:37;;;;;;;10.83;4.90;;;;;;;16.92;100.00;101482.66;7393076;19;20769;-59
2022/06/03 09:51:13;;;;;;;40.47;13.60;;;;;;;17.07;100.00;101466.59;7387259;19;20391;-59
2022/06/03 09:53:43;;;;;;;5.20;1.97;;;;;;;17.22;100.00;101467.84;7391212;19;20426;-58
2022/06/03 09:56:20;;;;;;;5.50;2.27;;;;;;;17.30;100.00;101440.22;7386143;19;20404;-59
2022/06/03 09:58:52;;;;;;;13.70;5.37;;;;;;;17.50;100.00;101473.75;7393008;19;20724;-52
2022/06/03 10:01:22;;;;;;;5.80;1.80;;;;;;;17.57;100.00;101475.66;7386916;19;20390;-57
2022/06/03 10:03:59;;;;;;;6.93;1.90;;;;;;;17.64;100.00;101428.00;7389975;19;20496;-52
2022/06/03 10:06:46;;;;;;;6.77;1.77;;;;;;;17.46;100.00;101522.34;7385285;19;20417;-58
2022/06/03 10:14:43;;;;;;;3.27;1.43;;;;;;;17.82;100.00;101564.97;7397645;19;20840;-57
2022/06/03 10:17:14;;;;;;;21.47;7.00;;;;;;;18.09;100.00;101543.00;7394009;19;20422;-59
2022/06/03 10:19:44;;;;;;;5.37;1.90;;;;;;;18.19;100.00;101531.94;7400324;19;20407;-59
2022/06/03 10:22:16;;;;;;;3.90;1.53;;;;;;;18.13;99.84;101584.03;7392463;19;20453;-58
2022/06/03 10:24:46;;;;;;;17.10;5.20;;;;;;;17.60;100.00;101556.63;7396837;19;20438;-58
2022/06/03 10:27:18;;;;;;;10.40;3.70;;;;;;;17.84;100.00;101534.56;7393658;19;20442;-57
2022/06/03 10:29:50;;;;;;;6.50;3.73;;;;;;;17.71;100.00;101545.56;7403185;19;20390;-57
2022/06/03 10:32:21;;;;;;;6.00;2.80;;;;;;;17.45;100.00;101556.22;7392906;19;20419;-55
2022/06/03 10:34:51;;;;;;;3.70;1.37;;;;;;;17.76;100.00;101544.84;7399401;19;20406;-58
2022/06/03 10:37:27;;;;;;;11.10;3.60;;;;;;;18.22;100.00;101552.88;7392209;19;20484;-59
2022/06/03 10:39:58;;;;;;;3.27;1.30;;;;;;;18.62;100.00;101531.09;7399959;19;20474;-58
2022/06/03 10:42:28;;;;;;;7.10;1.80;;;;;;;18.84;100.00;101527.19;7389827;19;20526;-57
2022/06/03 10:44:59;;;;;;;7.67;2.37;;;;;;;19.16;100.00;101531.28;7398666;19;20391;-59
2022/06/03 10:47:35;;;;;;;4.87;1.60;;;;;;;19.18;100.00;101542.69;7393549;19;20413;-58
2022/06/03 10:50:08;;;;;;;6.20;2.70;;;;;;;19.40;100.00;101543.06;7398856;19;20394;-56
2022/06/03 11:03:37;;;;;;;2.57;1.17;;;;;;;19.38;100.00;101539.53;7397826;19;20446;-60
2022/06/03 11:06:11;;;;;;;4.47;1.50;;;;;;;19.60;100.00;101503.25;7392106;19;20466;-56
2022/06/03 11:08:52;;;;;;;34.73;11.50;;;;;;;19.77;100.00;101520.13;7398498;19;20391;-58
2022/06/03 11:11:42;;;;;;;2.90;1.40;;;;;;;19.66;96.66;101540.00;7393197;19;20393;-58
2022/06/03 11:14:30;;;;;;;4.33;1.53;;;;;;;19.76;100.00;101523.59;7396235;19;20415;-56
2022/06/03 11:17:05;;;;;;;10.20;3.17;;;;;;;19.79;100.00;101523.63;7391549;19;20423;-56
2022/06/03 11:19:37;;;;;;;5.07;1.33;;;;;;;19.69;99.63;101521.75;7398431;19;20458;-58
2022/06/03 11:22:19;;;;;;;6.77;1.30;;;;;;;19.66;86.54;101555.72;7390211;19;20425;-57
2022/06/03 11:25:02;;;;;;;5.67;1.67;;;;;;;19.74;86.02;101543.63;7397765;19;20380;-57
2022/06/03 11:27:41;;;;;;;4.10;1.07;;;;;;;19.71;96.99;101522.63;7392155;19;20486;-59
2022/06/03 11:30:16;;;;;;;4.90;1.30;;;;;;;19.86;81.21;101555.16;7397712;19;20962;-58
2022/06/03 11:32:50;;;;;;;11.83;4.10;;;;;;;19.65;80.10;101553.94;7389885;19;20440;-56
2022/06/03 11:35:26;;;;;;;12.47;4.53;;;;;;;19.49;81.81;101544.97;7398196;19;20715;-59
2022/06/03 11:37:56;;;;;;;3.30;1.23;;;;;;;19.40;88.19;101524.75;7390970;19;20513;-57
2022/06/03 11:40:37;;;;;;;6.43;2.40;;;;;;;18.94;86.17;101532.59;7396928;19;20411;-56
2022/06/03 11:43:11;;;;;;;4.10;1.20;;;;;;;19.39;97.09;101505.53;7389619;19;21340;-58
2022/06/03 11:45:50;;;;;;;4.70;1.47;;;;;;;19.60;83.94;101532.06;7396895;19;20457;-57
2022/06/03 11:48:25;;;;;;;4.63;1.60;;;;;;;19.55;82.20;101542.44;7394703;19;20427;-60
2022/06/03 11:50:54;;;;;;;3.70;1.40;;;;;;;19.53;79.08;101538.94;7396798;19;20380;-57
2022/06/03 11:53:27;;;;;;;4.40;2.33;;;;;;;19.79;88.55;101520.16;7390277;19;20417;-60
2022/06/03 11:56:02;;;;;;;3.70;1.30;;;;;;;19.96;90.65;101512.59;7396912;19;20394;-60
2022/06/03 11:58:43;;;;;;;2.73;1.17;;;;;;;20.04;79.54;101531.03;7399890;19;20448;-59
2022/06/03 12:01:16;;;;;;;2.87;1.00;;;;;;;19.96;88.34;101510.81;7390604;19;20394;-57
2022/06/03 12:03:55;;;;;;;4.30;1.57;;;;;;;20.05;85.42;101517.94;7397929;19;20427;-60
2022/06/03 12:06:32;;;;;;;6.80;1.40;;;;;;;20.14;75.72;101527.66;7390053;19;20414;-58
2022/06/03 12:09:05;;;;;;;2.80;1.10;;;;;;;20.16;79.36;101511.97;7399970;19;20953;-59
2022/06/03 12:14:32;;;;;;;5.70;1.23;;;;;;;20.40;71.13;101514.03;7394543;19;20426;-58
2022/06/03 12:17:22;;;;;;;4.50;1.20;;;;;;;20.38;79.93;101510.53;7389863;19;20429;-60
2022/06/03 12:19:53;;;;;;;5.90;1.73;;;;;;;20.62;71.44;101516.94;7395880;19;20914;-58
2022/06/03 12:22:36;;;;;;;3.07;1.10;;;;;;;20.51;76.80;101504.56;7390654;19;20421;-58
2022/06/03 12:25:46;;;;;;;5.53;1.07;;;;;;;20.99;84.91;101479.78;7397639;19;20402;-60
2022/06/03 12:28:22;;;;;;;3.00;1.17;;;;;;;21.31;81.56;101484.44;7388839;19;20427;-60
2022/06/03 12:30:54;;;;;;;4.40;1.53;;;;;;;21.39;63.31;101503.75;7399321;19;20407;-59
2022/06/03 12:33:28;;;;;;;3.40;1.20;;;;;;;21.70;67.57;101496.16;7385678;19;20429;-58
2022/06/03 12:36:01;;;;;;;3.37;1.53;;;;;;;22.14;69.87;101499.03;7395594;19;20410;-58
2022/06/03 12:38:58;;;;;;;9.63;3.40;;;;;;;22.42;62.60;101491.31;7398781;19;20438;-59
2022/06/03 12:42:13;;;;;;;4.30;1.80;;;;;;;22.75;66.63;101489.69;7388709;19;20417;-58
2022/06/03 12:44:54;;;;;;;7.80;2.20;;;;;;;22.72;53.64;101487.03;7392810;19;21048;-58
2022/06/03 12:47:31;;;;;;;6.47;2.50;;;;;;;23.36;51.46;101486.25;7389197;19;20415;-60
2022/06/03 12:50:24;;;;;;;16.20;5.80;;;;;;;22.92;50.61;101491.50;7393627;19;20375;-60
2022/06/03 12:52:57;;;;;;;4.37;1.93;;;;;;;23.02;50.27;101487.97;7386591;19;20435;-57
2022/06/03 12:55:28;;;;;;;3.60;1.30;;;;;;;23.34;55.48;101481.03;7395118;19;20390;-56
2022/06/03 12:57:59;;;;;;;4.23;1.67;;;;;;;23.43;56.89;101480.16;7388326;19;20426;-59
2022/06/03 13:00:35;;;;;;;3.47;1.43;;;;;;;23.71;55.33;101480.09;7397075;19;20398;-58